Clever, Missouri
Current Conditions -  °F | °C
As of 8:52 AM on Thursday 23 Oct 2014 (Local Time) from KSGF Reporting Station
Broken Clouds Broken Clouds  
Wind Chill: 12°   Ceiling: 10000
Heat Index: 12°   Visibility: 10mi
Dew Point:   Wind: 12mph
Humidity: 69%   Direction: 170°S
Pressure: 30.18"   Gusts: NA
Location:  37.03°N, 93.47°W
Report Text: KSGF 231352Z 17010KT 10SM BKN100 12/06 A3018 RMK AO2 SLP217 T01170061
Loading
Personal Weather Stations






























Interactive Weather Map
Tropical Storm Tracking
New forecast layout! Learn more

10-Day Weather Forecast

Advertisements
Track Severe Weather on mobile